Time;durP1;ratioP1;P1;durP2;ratioP2;P2;SDS_P1;SDS_P2;PMS_P1;PMS_P2;Temp;Humidity;BMP_temperature;BMP_pressure;BME280_temperature;BME280_humidity;BME280_pressure;Samples;Min_cycle;Max_cycle;Signal;HPM_P1;HPM_P2
2023/01/25 00:02:08;;;;;;;34.88;21.10;;;1.00;99.90;;;;;;5125335;27;20213;-92
2023/01/25 00:04:33;;;;;;;33.55;20.83;;;1.00;99.90;;;;;;5111217;27;20053;-91
2023/01/25 00:06:59;;;;;;;35.95;20.85;;;1.00;99.90;;;;;;5116760;27;20062;-92
2023/01/25 00:09:28;;;;;;;36.25;21.20;;;1.00;99.90;;;;;;5136162;27;20095;-92
2023/01/25 00:11:56;;;;;;;35.80;21.10;;;1.00;99.90;;;;;;5106104;27;20038;-91
2023/01/25 00:14:25;;;;;;;35.35;21.27;;;1.00;99.90;;;;;;5113152;27;20027;-91
2023/01/25 00:16:51;;;;;;;35.95;21.65;;;0.90;99.90;;;;;;5112934;27;20378;-91
2023/01/25 00:19:17;;;;;;;35.17;21.83;;;1.10;99.90;;;;;;5108642;27;20087;-91
2023/01/25 00:21:43;;;;;;;38.05;22.70;;;1.00;99.90;;;;;;5138752;27;20265;-91
2023/01/25 00:24:10;;;;;;;36.40;22.42;;;1.00;99.90;;;;;;5127537;27;20532;-92
2023/01/25 00:26:46;;;;;;;34.28;21.27;;;1.10;99.90;;;;;;5112408;27;20027;-91
2023/01/25 00:29:13;;;;;;;38.28;22.65;;;1.00;99.90;;;;;;5130811;27;20066;-90
2023/01/25 00:32:01;;;;;;;39.40;23.40;;;1.00;99.90;;;;;;5110178;27;20030;-90
2023/01/25 00:34:37;;;;;;;36.08;22.40;;;1.10;99.90;;;;;;5116288;27;20215;-91
2023/01/25 00:37:13;;;;;;;38.47;24.05;;;1.00;99.90;;;;;;5132705;27;20051;-91
2023/01/25 00:39:40;;;;;;;38.05;22.80;;;1.00;99.90;;;;;;5110012;27;20046;-91
2023/01/25 00:42:14;;;;;;;35.92;22.23;;;1.00;99.90;;;;;;5104985;27;20477;-92
2023/01/25 00:44:39;;;;;;;38.65;23.30;;;0.90;99.90;;;;;;5110477;27;20550;-91
2023/01/25 00:47:06;;;;;;;41.33;24.67;;;1.00;99.90;;;;;;5134868;27;20046;-91
2023/01/25 00:49:34;;;;;;;41.80;24.52;;;1.10;99.90;;;;;;5109057;27;20035;-91
2023/01/25 00:51:59;;;;;;;40.80;24.58;;;1.10;99.90;;;;;;5114301;27;20082;-92
2023/01/25 00:54:25;;;;;;;41.63;24.33;;;1.00;99.90;;;;;;5111043;27;20102;-91
2023/01/25 00:56:52;;;;;;;43.63;24.13;;;0.90;99.90;;;;;;5117027;27;20039;-91
2023/01/25 00:59:19;;;;;;;43.35;25.20;;;1.00;99.90;;;;;;5118468;27;20039;-91
2023/01/25 01:01:45;;;;;;;41.55;24.65;;;1.00;99.90;;;;;;5108212;27;20031;-92
2023/01/25 01:04:11;;;;;;;44.88;26.23;;;1.10;99.90;;;;;;5110499;27;20088;-92
2023/01/25 01:06:38;;;;;;;46.03;25.65;;;1.10;99.90;;;;;;5123724;27;20121;-92
2023/01/25 01:09:06;;;;;;;45.20;24.75;;;0.90;99.90;;;;;;5114642;27;20039;-92
2023/01/25 01:11:32;;;;;;;46.08;25.13;;;0.90;99.90;;;;;;5111099;27;20549;-91
2023/01/25 01:13:58;;;;;;;45.95;26.20;;;1.00;99.90;;;;;;5130125;27;20034;-92
2023/01/25 01:16:25;;;;;;;47.05;26.45;;;1.00;99.90;;;;;;5105746;27;20139;-92
2023/01/25 01:18:51;;;;;;;47.10;26.73;;;1.00;99.90;;;;;;5112961;27;20077;-91
2023/01/25 01:21:17;;;;;;;44.33;26.17;;;1.00;99.90;;;;;;5106856;27;20412;-92
2023/01/25 01:23:43;;;;;;;45.88;24.92;;;0.90;99.90;;;;;;5102622;27;20269;-91
2023/01/25 01:26:12;;;;;;;45.03;26.17;;;0.80;99.90;;;;;;5105704;27;20123;-91
2023/01/25 01:29:09;;;;;;;47.85;25.95;;;0.90;99.90;;;;;;5111305;28;20043;-90
2023/01/25 01:31:54;;;;;;;43.58;24.55;;;0.80;99.90;;;;;;5115949;27;20035;-91
2023/01/25 01:34:20;;;;;;;44.15;25.10;;;0.90;99.90;;;;;;5107774;27;20039;-91
2023/01/25 01:36:46;;;;;;;48.20;26.95;;;0.80;99.90;;;;;;5110834;27;20057;-92
2023/01/25 01:39:12;;;;;;;49.85;27.90;;;0.80;99.90;;;;;;5107832;27;20049;-91
2023/01/25 01:41:38;;;;;;;47.05;26.08;;;0.70;99.90;;;;;;5131778;27;20035;-90
2023/01/25 01:44:04;;;;;;;50.63;27.15;;;0.90;99.90;;;;;;5152775;27;20453;-91
2023/01/25 01:46:38;;;;;;;48.15;27.80;;;0.80;99.90;;;;;;5112197;27;20481;-91
2023/01/25 01:49:18;;;;;;;49.55;27.25;;;0.80;99.90;;;;;;5113130;27;20031;-91
2023/01/25 01:51:46;;;;;;;46.63;25.95;;;0.80;99.90;;;;;;5100920;27;20043;-91
2023/01/25 01:54:26;;;;;;;49.40;27.80;;;0.70;99.90;;;;;;5102634;28;20031;-91
2023/01/25 01:57:18;;;;;;;50.78;27.20;;;0.80;99.90;;;;;;5133870;27;20061;-91
2023/01/25 01:59:49;;;;;;;49.03;26.98;;;0.70;99.90;;;;;;5108076;27;20047;-91
2023/01/25 02:02:15;;;;;;;49.38;28.63;;;0.70;99.90;;;;;;5126847;27;20155;-91
2023/01/25 02:08:26;;;;;;;45.55;25.52;;;0.80;99.90;;;;;;5125879;27;20039;-92
2023/01/25 02:10:52;;;;;;;54.90;28.27;;;0.80;99.90;;;;;;5114668;27;20045;-91
2023/01/25 02:13:27;;;;;;;49.47;27.92;;;0.80;99.90;;;;;;5126164;28;20043;-91
2023/01/25 02:15:55;;;;;;;55.58;28.80;;;0.80;99.90;;;;;;5107069;27;20095;-91
2023/01/25 02:18:23;;;;;;;56.38;30.63;;;0.80;99.90;;;;;;5127651;27;20123;-91
2023/01/25 02:21:27;;;;;;;53.20;28.17;;;0.70;99.90;;;;;;5119305;27;20493;-91
2023/01/25 02:27:36;;;;;;;54.63;29.05;;;0.70;99.90;;;;;;5155269;27;20038;-91
2023/01/25 02:30:06;;;;;;;51.80;28.05;;;0.60;99.90;;;;;;5120147;27;20073;-91
2023/01/25 02:32:58;;;;;;;56.92;30.52;;;0.70;99.90;;;;;;5139319;27;20070;-91
2023/01/25 02:35:47;;;;;;;56.63;30.83;;;0.60;99.90;;;;;;5126287;27;20043;-91
2023/01/25 02:38:16;;;;;;;55.50;30.90;;;0.70;99.90;;;;;;5131405;27;20055;-91
2023/01/25 02:40:59;;;;;;;59.65;30.10;;;0.60;99.90;;;;;;5109790;27;20042;-92
2023/01/25 02:43:30;;;;;;;57.90;30.77;;;0.60;99.90;;;;;;5113476;27;20083;-91
2023/01/25 02:46:16;;;;;;;57.47;30.50;;;0.70;99.90;;;;;;5109977;27;20427;-91
2023/01/25 02:48:42;;;;;;;56.45;29.60;;;0.70;99.90;;;;;;5127796;27;20038;-91
2023/01/25 02:51:09;;;;;;;59.63;30.77;;;0.70;99.90;;;;;;5123849;27;20059;-91
2023/01/25 02:53:35;;;;;;;58.35;31.10;;;0.70;99.90;;;;;;5108672;27;20039;-91
2023/01/25 02:56:01;;;;;;;60.50;30.83;;;0.80;99.90;;;;;;5107340;27;20067;-91
2023/01/25 02:58:27;;;;;;;58.45;31.90;;;0.80;99.90;;;;;;5109081;27;20087;-91
2023/01/25 03:00:53;;;;;;;60.08;32.25;;;0.80;99.90;;;;;;5104809;27;20766;-92
2023/01/25 03:03:19;;;;;;;62.80;32.58;;;0.70;99.90;;;;;;5125436;27;20902;-91
2023/01/25 03:05:44;;;;;;;61.70;32.05;;;0.70;99.90;;;;;;5113202;27;20122;-91
2023/01/25 03:08:10;;;;;;;63.55;31.17;;;0.70;99.90;;;;;;5114226;27;20122;-91
2023/01/25 03:10:36;;;;;;;64.45;32.60;;;0.70;99.90;;;;;;5108135;27;20046;-92
2023/01/25 03:13:02;;;;;;;63.05;33.85;;;0.60;99.90;;;;;;5147212;27;20050;-91
2023/01/25 03:15:30;;;;;;;63.97;32.17;;;0.60;99.90;;;;;;5124698;27;20309;-91
2023/01/25 03:17:57;;;;;;;65.30;33.95;;;0.60;99.90;;;;;;5113183;27;20121;-91
2023/01/25 03:20:23;;;;;;;67.38;34.60;;;0.50;99.90;;;;;;5128289;27;20477;-91
2023/01/25 03:22:48;;;;;;;63.45;33.55;;;0.60;99.90;;;;;;5111398;27;20062;-91
2023/01/25 03:25:14;;;;;;;61.00;32.75;;;0.60;99.90;;;;;;5125148;27;20483;-90
2023/01/25 03:27:43;;;;;;;63.00;32.75;;;0.60;99.90;;;;;;5102485;27;20042;-91
2023/01/25 03:30:09;;;;;;;68.15;33.42;;;0.60;99.90;;;;;;5110571;27;20126;-91
2023/01/25 03:32:35;;;;;;;63.28;32.90;;;0.50;99.90;;;;;;5124006;27;20451;-91
2023/01/25 03:35:01;;;;;;;64.93;33.33;;;0.60;99.90;;;;;;5125886;27;20038;-91
2023/01/25 03:37:28;;;;;;;68.82;34.13;;;0.60;99.90;;;;;;5109155;27;20524;-91
2023/01/25 03:39:58;;;;;;;61.95;32.72;;;0.60;99.90;;;;;;5126231;27;20489;-91
2023/01/25 03:42:24;;;;;;;64.85;34.10;;;0.50;99.90;;;;;;5106817;27;20244;-92
2023/01/25 03:44:50;;;;;;;65.57;32.88;;;0.50;99.90;;;;;;5112817;27;20031;-91
2023/01/25 03:47:16;;;;;;;62.70;31.52;;;0.50;99.90;;;;;;5110266;27;20069;-91
2023/01/25 03:49:41;;;;;;;64.43;34.22;;;0.40;99.90;;;;;;5110700;27;20087;-91
2023/01/25 03:52:07;;;;;;;63.88;32.70;;;0.50;99.90;;;;;;5133503;27;20066;-91
2023/01/25 03:54:33;;;;;;;64.35;32.55;;;0.40;99.90;;;;;;5109708;27;20049;-90
2023/01/25 03:57:02;;;;;;;64.30;32.13;;;0.40;99.90;;;;;;5109899;27;20088;-91
2023/01/25 03:59:27;;;;;;;61.85;31.13;;;0.30;99.90;;;;;;5109623;27;20334;-92
2023/01/25 04:11:59;;;;;;;63.38;32.65;;;0.20;99.90;;;;;;5143878;27;20069;-91
2023/01/25 04:14:44;;;;;;;64.03;32.90;;;0.10;99.90;;;;;;5111395;27;20122;-91
2023/01/25 04:20:35;;;;;;;61.38;32.50;;;0.30;99.90;;;;;;5122317;27;20038;-90
2023/01/25 04:23:07;;;;;;;65.97;34.97;;;0.30;99.90;;;;;;5117472;27;20092;-92
2023/01/25 04:25:33;;;;;;;69.90;33.72;;;0.30;99.90;;;;;;5128901;27;20121;-91
2023/01/25 04:27:58;;;;;;;69.03;34.50;;;0.30;99.90;;;;;;5121719;27;20035;-91
2023/01/25 04:30:25;;;;;;;69.05;35.83;;;0.20;99.90;;;;;;5104866;27;20093;-91
2023/01/25 04:32:50;;;;;;;65.95;35.50;;;0.30;99.90;;;;;;5124904;27;20039;-91
2023/01/25 04:35:16;;;;;;;67.15;35.72;;;0.30;99.90;;;;;;5122641;27;20560;-91
2023/01/25 04:37:42;;;;;;;65.70;34.55;;;0.30;99.90;;;;;;5104839;27;20051;-91
2023/01/25 04:40:08;;;;;;;71.95;36.83;;;0.30;99.90;;;;;;5111445;27;20062;-91
2023/01/25 04:42:34;;;;;;;65.40;33.42;;;0.20;99.90;;;;;;5107265;27;20082;-91
2023/01/25 04:45:00;;;;;;;65.43;34.75;;;0.20;99.90;;;;;;5110326;27;20043;-91
2023/01/25 04:47:25;;;;;;;64.35;33.70;;;0.30;99.90;;;;;;5123396;27;20115;-89
2023/01/25 04:49:51;;;;;;;73.18;35.67;;;0.30;99.90;;;;;;5108468;27;20039;-91
2023/01/25 04:52:17;;;;;;;67.68;34.92;;;0.30;99.90;;;;;;5127673;27;20082;-91
2023/01/25 04:54:43;;;;;;;70.40;36.50;;;0.30;99.90;;;;;;5105844;27;20072;-92
2023/01/25 04:57:08;;;;;;;70.45;36.00;;;0.40;99.90;;;;;;5103415;27;20481;-92
2023/01/25 04:59:34;;;;;;;71.40;35.80;;;0.40;99.90;;;;;;5121145;27;20034;-91
2023/01/25 05:01:59;;;;;;;67.65;35.25;;;0.30;99.90;;;;;;5106889;27;20073;-91
2023/01/25 05:04:25;;;;;;;72.95;37.13;;;0.30;99.90;;;;;;5122269;27;20141;-91
2023/01/25 05:06:51;;;;;;;68.65;35.22;;;0.30;99.90;;;;;;5128057;27;20414;-92
2023/01/25 05:09:17;;;;;;;70.45;35.88;;;0.40;99.90;;;;;;5107743;27;20285;-91
2023/01/25 05:11:42;;;;;;;68.35;34.92;;;0.30;99.90;;;;;;5106540;27;20031;-91
2023/01/25 05:14:08;;;;;;;70.97;35.90;;;0.30;99.90;;;;;;5119086;27;20034;-93
2023/01/25 05:16:34;;;;;;;69.93;35.97;;;0.30;99.90;;;;;;5108244;27;20064;-92
2023/01/25 05:18:59;;;;;;;70.30;36.30;;;0.30;99.90;;;;;;5107732;27;20061;-91
2023/01/25 05:24:09;;;;;;;73.47;38.30;;;0.40;99.90;;;;;;5123554;27;20040;-90
2023/01/25 05:29:19;;;;;;;75.90;35.67;;;0.30;99.90;;;;;;5121947;27;20038;-91
2023/01/25 05:31:44;;;;;;;71.72;36.40;;;0.30;99.90;;;;;;5109807;27;20064;-90
2023/01/25 05:34:10;;;;;;;71.03;35.53;;;0.30;99.90;;;;;;5112909;27;20068;-91
2023/01/25 05:36:36;;;;;;;72.88;35.42;;;0.20;99.90;;;;;;5113450;27;20038;-90
2023/01/25 05:39:05;;;;;;;69.55;34.75;;;0.20;99.90;;;;;;5109490;27;20035;-91
2023/01/25 05:41:34;;;;;;;69.85;34.47;;;0.20;99.90;;;;;;5108326;27;20035;-91
2023/01/25 05:44:00;;;;;;;68.22;34.88;;;0.20;99.90;;;;;;5106934;27;20050;-91
2023/01/25 05:46:28;;;;;;;68.93;33.92;;;0.20;99.90;;;;;;5108018;27;20039;-91
2023/01/25 05:48:54;;;;;;;68.60;35.72;;;0.10;99.90;;;;;;5111167;27;20089;-91
2023/01/25 05:51:20;;;;;;;70.95;35.38;;;0.10;99.90;;;;;;5105774;27;20521;-90
2023/01/25 05:53:45;;;;;;;72.25;35.80;;;0.00;99.90;;;;;;5107008;27;20047;-91
2023/01/25 05:56:14;;;;;;;70.03;35.58;;;0.10;99.90;;;;;;5126222;27;20074;-91
2023/01/25 05:58:40;;;;;;;65.05;34.70;;;0.10;99.90;;;;;;5109356;27;20593;-91
2023/01/25 06:01:06;;;;;;;64.80;32.80;;;0.10;99.90;;;;;;5128855;27;20115;-92
2023/01/25 06:03:33;;;;;;;64.80;33.90;;;0.00;99.90;;;;;;5127391;27;20111;-92
2023/01/25 06:06:05;;;;;;;65.13;33.55;;;0.00;99.90;;;;;;5107227;27;20381;-91
2023/01/25 06:08:31;;;;;;;60.35;31.85;;;-0.10;99.90;;;;;;5110471;27;20043;-91
2023/01/25 06:10:57;;;;;;;59.08;31.92;;;-0.20;99.90;;;;;;5127014;27;20048;-91
2023/01/25 06:13:24;;;;;;;60.50;32.33;;;-0.20;99.90;;;;;;5110145;27;20030;-90
2023/01/25 06:15:54;;;;;;;59.30;30.02;;;-0.10;99.90;;;;;;5104650;27;20039;-92
2023/01/25 06:18:21;;;;;;;58.00;30.83;;;-0.30;99.90;;;;;;5109215;27;20045;-92
2023/01/25 06:20:47;;;;;;;54.72;29.40;;;-0.30;99.90;;;;;;5118398;27;20038;-92
2023/01/25 06:23:16;;;;;;;59.45;29.65;;;-0.30;99.90;;;;;;5132080;27;20042;-92
2023/01/25 06:25:42;;;;;;;60.38;32.35;;;-0.30;99.90;;;;;;5113836;27;20080;-92
2023/01/25 06:28:07;;;;;;;55.13;29.33;;;-0.30;99.90;;;;;;5110942;27;20444;-92
2023/01/25 06:30:34;;;;;;;52.85;28.70;;;-0.40;99.90;;;;;;5111173;27;20049;-92
2023/01/25 06:33:00;;;;;;;56.42;30.35;;;-0.40;99.90;;;;;;5109859;27;20083;-92
2023/01/25 06:35:27;;;;;;;57.72;31.13;;;-0.30;99.90;;;;;;5122551;27;20536;-92
2023/01/25 06:37:57;;;;;;;55.55;29.83;;;-0.40;99.90;;;;;;5105912;27;20054;-92
2023/01/25 06:40:23;;;;;;;54.33;30.30;;;-0.30;99.90;;;;;;5124007;27;20037;-92
2023/01/25 06:42:49;;;;;;;61.65;31.67;;;-0.40;99.90;;;;;;5122601;27;20057;-91
2023/01/25 06:45:15;;;;;;;55.40;30.52;;;-0.30;99.90;;;;;;5111411;27;20043;-91
2023/01/25 06:47:41;;;;;;;59.50;32.80;;;-0.30;99.90;;;;;;5122092;27;20039;-91
2023/01/25 06:50:09;;;;;;;59.22;32.05;;;-0.30;99.90;;;;;;5128153;27;20107;-91
2023/01/25 06:52:35;;;;;;;61.22;32.80;;;-0.30;99.90;;;;;;5107185;27;20477;-91
2023/01/25 06:55:12;;;;;;;58.58;32.03;;;-0.30;99.90;;;;;;5112709;27;20061;-92
2023/01/25 06:57:38;;;;;;;62.33;31.98;;;-0.20;99.90;;;;;;5111971;27;20037;-92
2023/01/25 07:00:05;;;;;;;59.05;32.33;;;-0.30;99.90;;;;;;5128789;27;20373;-92
2023/01/25 07:02:30;;;;;;;64.22;33.38;;;-0.30;99.90;;;;;;5127490;27;20039;-91
2023/01/25 07:04:56;;;;;;;58.78;31.48;;;-0.20;99.90;;;;;;5117535;27;20038;-92
2023/01/25 07:07:22;;;;;;;56.75;31.40;;;-0.30;99.90;;;;;;5111963;27;20041;-91
2023/01/25 07:09:50;;;;;;;59.50;30.15;;;-0.30;99.90;;;;;;5107689;27;20111;-92
2023/01/25 07:12:18;;;;;;;59.53;32.72;;;-0.30;99.90;;;;;;5112600;27;20391;-92
2023/01/25 07:14:44;;;;;;;60.97;31.58;;;-0.30;99.90;;;;;;5117973;27;20080;-91
2023/01/25 07:17:09;;;;;;;59.03;31.15;;;-0.30;99.90;;;;;;5128600;27;20042;-91
2023/01/25 07:19:35;;;;;;;58.55;31.13;;;-0.30;99.90;;;;;;5132778;27;20035;-91
2023/01/25 07:22:01;;;;;;;58.88;30.95;;;-0.30;99.90;;;;;;5104723;27;20034;-91
2023/01/25 07:24:28;;;;;;;62.35;32.70;;;-0.30;99.90;;;;;;5112136;27;20065;-91
2023/01/25 07:26:54;;;;;;;58.33;31.40;;;-0.30;99.90;;;;;;5129770;27;20035;-91
2023/01/25 07:29:19;;;;;;;61.95;32.40;;;-0.30;99.90;;;;;;5142038;27;20739;-91
2023/01/25 07:31:45;;;;;;;56.80;29.85;;;-0.20;99.90;;;;;;5112835;27;20042;-91
2023/01/25 07:34:12;;;;;;;56.50;30.80;;;-0.20;99.90;;;;;;5111056;27;20857;-91
2023/01/25 07:36:38;;;;;;;57.58;31.23;;;-0.20;99.90;;;;;;5122067;27;20050;-91
2023/01/25 07:39:04;;;;;;;56.30;30.77;;;-0.20;99.90;;;;;;5121938;27;20199;-90
2023/01/25 07:41:31;;;;;;;58.47;30.55;;;-0.40;99.90;;;;;;5113042;27;20038;-91
2023/01/25 07:43:59;;;;;;;59.90;32.95;;;-0.20;99.90;;;;;;5127518;27;20035;-92
2023/01/25 07:46:25;;;;;;;57.95;30.95;;;-0.30;99.90;;;;;;5110300;27;20381;-91
2023/01/25 07:48:53;;;;;;;60.05;31.05;;;-0.20;99.90;;;;;;5136907;27;20079;-91
2023/01/25 07:51:29;;;;;;;58.22;31.08;;;-0.20;99.90;;;;;;5113693;27;20038;-91
2023/01/25 07:53:56;;;;;;;58.78;30.23;;;-0.30;99.90;;;;;;5105403;27;20043;-91
2023/01/25 07:56:24;;;;;;;59.67;31.08;;;-0.20;99.90;;;;;;5107339;27;20027;-91
2023/01/25 07:58:55;;;;;;;58.10;30.08;;;-0.20;99.90;;;;;;5112213;27;20057;-91
2023/01/25 08:01:23;;;;;;;55.08;28.63;;;-0.20;99.90;;;;;;5114142;27;20441;-91
2023/01/25 08:03:49;;;;;;;58.72;29.50;;;-0.40;99.90;;;;;;5109634;27;20491;-91
2023/01/25 08:06:15;;;;;;;62.45;31.25;;;-0.30;99.90;;;;;;5118322;27;20150;-91
2023/01/25 08:08:47;;;;;;;56.75;29.98;;;-0.20;99.90;;;;;;5109640;27;20035;-91
2023/01/25 08:11:14;;;;;;;59.25;29.60;;;-0.40;99.90;;;;;;5110290;27;20473;-91
2023/01/25 08:13:44;;;;;;;57.50;30.10;;;-0.30;99.90;;;;;;5109699;27;20057;-90
2023/01/25 08:16:21;;;;;;;58.22;29.25;;;-0.30;99.90;;;;;;5124381;27;20102;-91
2023/01/25 08:18:52;;;;;;;56.83;30.10;;;-0.30;99.90;;;;;;5106994;27;20046;-91
2023/01/25 08:21:17;;;;;;;57.95;29.73;;;-0.40;99.90;;;;;;5114353;27;20125;-91
2023/01/25 08:23:44;;;;;;;59.38;31.73;;;-0.50;99.90;;;;;;5128316;27;20513;-90
2023/01/25 08:26:11;;;;;;;63.63;32.55;;;-0.40;99.90;;;;;;5108803;27;20046;-91
2023/01/25 08:28:37;;;;;;;60.83;31.85;;;-0.40;99.90;;;;;;5149575;27;20054;-91
2023/01/25 08:31:08;;;;;;;60.33;31.17;;;-0.40;99.90;;;;;;5106895;27;20276;-90
2023/01/25 08:33:34;;;;;;;64.40;32.30;;;-0.20;99.90;;;;;;5116771;27;20061;-90
2023/01/25 08:36:03;;;;;;;62.03;31.42;;;-0.30;99.90;;;;;;5110718;27;20039;-91
2023/01/25 08:38:29;;;;;;;63.75;31.80;;;-0.40;99.90;;;;;;5103265;27;20125;-92
2023/01/25 08:40:55;;;;;;;58.40;30.42;;;-0.40;99.90;;;;;;5125241;27;20130;-91
2023/01/25 08:43:21;;;;;;;58.50;31.27;;;-0.30;99.90;;;;;;5122428;27;20609;-91
2023/01/25 08:45:54;;;;;;;60.08;31.63;;;-0.40;99.90;;;;;;5107096;27;20165;-90
2023/01/25 08:48:20;;;;;;;62.53;31.40;;;-0.40;99.90;;;;;;5125106;27;20045;-91
2023/01/25 08:50:46;;;;;;;62.67;32.45;;;-0.30;99.90;;;;;;5105729;27;20038;-91
2023/01/25 08:53:12;;;;;;;66.68;32.80;;;-0.30;99.90;;;;;;5130977;27;20046;-91
2023/01/25 08:55:40;;;;;;;63.58;32.92;;;-0.20;99.90;;;;;;5118228;27;20489;-90
2023/01/25 08:58:09;;;;;;;65.80;35.50;;;-0.10;99.90;;;;;;5103497;27;20362;-90
2023/01/25 09:00:37;;;;;;;67.30;35.30;;;-0.10;99.90;;;;;;5102673;27;20042;-89
2023/01/25 09:03:02;;;;;;;67.57;33.60;;;0.00;99.90;;;;;;5130987;27;20038;-91
2023/01/25 09:05:28;;;;;;;67.03;33.88;;;-0.10;99.90;;;;;;5105338;27;20049;-91
2023/01/25 09:07:54;;;;;;;66.40;33.40;;;0.00;99.90;;;;;;5123131;27;20039;-90
2023/01/25 09:10:22;;;;;;;64.43;33.55;;;-0.10;99.90;;;;;;5103926;27;20082;-91
2023/01/25 09:12:48;;;;;;;67.88;32.13;;;-0.10;99.90;;;;;;5121790;27;20489;-91
2023/01/25 09:15:13;;;;;;;62.40;30.83;;;-0.20;99.90;;;;;;5119624;27;20119;-91
2023/01/25 09:17:39;;;;;;;63.45;32.55;;;-0.20;99.90;;;;;;5131165;27;20083;-91
2023/01/25 09:20:06;;;;;;;65.53;31.83;;;-0.10;99.90;;;;;;5104934;27;20056;-90
2023/01/25 09:22:32;;;;;;;70.28;33.30;;;-0.10;99.90;;;;;;5106793;27;20079;-91
2023/01/25 09:24:57;;;;;;;65.40;32.00;;;0.00;99.90;;;;;;5108050;27;20047;-91
2023/01/25 09:27:23;;;;;;;69.65;34.15;;;-0.10;99.90;;;;;;5118142;27;20038;-91
2023/01/25 09:29:49;;;;;;;65.13;31.50;;;-0.10;99.90;;;;;;5105318;27;20039;-91
2023/01/25 09:32:14;;;;;;;63.95;31.65;;;-0.10;99.90;;;;;;5107145;27;20149;-90
2023/01/25 09:34:40;;;;;;;63.40;30.60;;;-0.10;99.90;;;;;;5123155;27;20034;-90
2023/01/25 09:37:12;;;;;;;64.95;32.08;;;0.00;99.90;;;;;;5126648;27;20047;-90
2023/01/25 09:39:38;;;;;;;63.95;31.83;;;0.00;99.90;;;;;;5102384;27;20027;-91
2023/01/25 09:42:41;;;;;;;62.83;31.65;;;0.10;99.90;;;;;;5120055;27;20419;-91
2023/01/25 09:45:18;;;;;;;65.20;31.50;;;0.10;99.90;;;;;;5136746;27;20050;-91
2023/01/25 09:48:03;;;;;;;66.50;32.20;;;-0.10;99.90;;;;;;5101396;27;20042;-91
2023/01/25 09:51:02;;;;;;;62.15;30.85;;;0.00;99.90;;;;;;5107771;27;20073;-90
2023/01/25 09:53:37;;;;;;;60.85;29.90;;;0.10;99.90;;;;;;5131719;27;20429;-90
2023/01/25 09:56:15;;;;;;;66.85;31.73;;;0.10;99.90;;;;;;5129302;27;20038;-90
2023/01/25 09:58:47;;;;;;;61.97;30.20;;;0.00;99.90;;;;;;5106271;27;20039;-91
2023/01/25 10:01:51;;;;;;;66.68;32.67;;;0.10;99.90;;;;;;5118115;27;20046;-90
2023/01/25 10:04:29;;;;;;;67.07;32.08;;;0.00;99.90;;;;;;5110640;27;20046;-92
2023/01/25 10:07:20;;;;;;;64.80;31.85;;;0.10;99.90;;;;;;5140126;27;20050;-91
2023/01/25 10:10:12;;;;;;;69.88;31.42;;;0.10;99.90;;;;;;5104510;27;20468;-92
2023/01/25 10:12:38;;;;;;;64.32;29.77;;;0.00;99.90;;;;;;5097323;27;20138;-91
2023/01/25 10:15:27;;;;;;;64.38;28.63;;;-0.10;99.90;;;;;;5109229;27;20042;-90
2023/01/25 10:18:04;;;;;;;63.90;30.13;;;0.00;99.90;;;;;;5110015;27;20073;-91
2023/01/25 10:20:56;;;;;;;63.00;28.90;;;0.10;99.90;;;;;;5102689;27;20038;-91
2023/01/25 10:23:52;;;;;;;61.35;28.00;;;0.10;99.90;;;;;;5118218;27;20042;-91
2023/01/25 10:26:28;;;;;;;60.17;28.98;;;0.00;99.90;;;;;;5122058;27;20491;-91
2023/01/25 10:28:54;;;;;;;62.72;29.13;;;0.00;99.90;;;;;;5102025;27;20084;-91
2023/01/25 10:31:30;;;;;;;67.10;29.88;;;0.00;99.90;;;;;;5105020;27;20070;-91
2023/01/25 10:33:58;;;;;;;62.08;27.67;;;0.10;99.90;;;;;;5103402;27;20116;-91
2023/01/25 10:36:31;;;;;;;64.68;29.08;;;0.20;99.90;;;;;;5119033;27;20046;-90
2023/01/25 10:38:59;;;;;;;61.95;28.40;;;0.20;99.90;;;;;;5103062;27;20046;-91
2023/01/25 10:41:41;;;;;;;57.13;27.55;;;0.20;99.90;;;;;;5107389;27;20034;-91
2023/01/25 10:44:23;;;;;;;68.57;27.55;;;0.20;99.90;;;;;;5104599;27;20512;-90
2023/01/25 10:46:56;;;;;;;61.53;27.98;;;0.10;99.90;;;;;;5104761;27;20047;-90
2023/01/25 10:49:48;;;;;;;65.70;29.00;;;0.30;99.90;;;;;;5108850;27;20038;-91
2023/01/25 10:52:23;;;;;;;62.42;28.17;;;0.30;99.90;;;;;;5106729;27;20043;-90
2023/01/25 10:55:13;;;;;;;57.67;27.38;;;0.20;99.90;;;;;;5123988;27;20316;-90
2023/01/25 10:57:44;;;;;;;63.67;29.17;;;0.20;99.90;;;;;;5126481;27;20049;-91
2023/01/25 11:00:36;;;;;;;61.30;28.27;;;0.20;99.90;;;;;;5128430;27;20114;-90
2023/01/25 11:03:02;;;;;;;63.95;28.83;;;0.30;99.90;;;;;;5101419;27;20153;-90
2023/01/25 11:05:35;;;;;;;62.55;28.13;;;0.30;99.90;;;;;;5124599;27;20537;-90
2023/01/25 11:08:21;;;;;;;70.38;30.00;;;0.30;99.90;;;;;;5123888;27;20453;-91
2023/01/25 11:10:47;;;;;;;61.38;28.23;;;0.30;99.90;;;;;;5104340;27;20217;-91
2023/01/25 11:13:23;;;;;;;68.72;28.42;;;0.40;99.90;;;;;;5123423;27;20043;-91
2023/01/25 11:15:52;;;;;;;66.35;29.25;;;0.30;99.90;;;;;;5104605;27;20342;-91
2023/01/25 11:18:23;;;;;;;69.80;29.90;;;0.40;99.90;;;;;;5128318;27;20040;-91
2023/01/25 11:21:04;;;;;;;65.40;28.45;;;0.50;99.90;;;;;;5119350;27;20461;-91
2023/01/25 11:23:33;;;;;;;65.50;27.73;;;0.40;99.90;;;;;;5124639;27;20141;-91
2023/01/25 11:26:18;;;;;;;63.55;28.25;;;0.40;99.90;;;;;;5124046;27;20034;-91
2023/01/25 11:28:47;;;;;;;68.40;30.00;;;0.50;99.90;;;;;;5108181;27;20041;-91
2023/01/25 11:31:20;;;;;;;65.72;29.75;;;0.40;99.90;;;;;;5127600;27;20069;-90
2023/01/25 11:33:46;;;;;;;69.60;29.25;;;0.50;99.90;;;;;;5124092;27;20412;-90
2023/01/25 11:36:48;;;;;;;65.47;29.08;;;0.60;99.90;;;;;;5108378;27;20084;-90
2023/01/25 11:39:38;;;;;;;65.82;29.05;;;0.50;99.90;;;;;;5105086;27;20053;-92
2023/01/25 11:42:26;;;;;;;62.78;27.27;;;0.60;99.90;;;;;;5105572;27;20038;-91
2023/01/25 11:45:05;;;;;;;68.93;29.08;;;0.60;99.90;;;;;;5133826;27;20063;-90
2023/01/25 11:47:57;;;;;;;71.13;29.50;;;0.70;99.90;;;;;;5124105;27;20479;-91
2023/01/25 11:50:44;;;;;;;61.70;27.25;;;0.70;99.90;;;;;;5103226;27;20045;-91
2023/01/25 11:53:18;;;;;;;63.05;26.02;;;0.60;99.90;;;;;;5116270;27;20049;-92
2023/01/25 11:56:04;;;;;;;58.47;26.83;;;0.60;99.90;;;;;;5103997;27;20541;-91
2023/01/25 11:59:06;;;;;;;65.60;28.48;;;0.50;99.90;;;;;;5122043;27;20558;-92
2023/01/25 12:01:44;;;;;;;62.95;28.83;;;0.60;99.90;;;;;;5118996;27;20080;-90
2023/01/25 12:04:47;;;;;;;65.90;27.42;;;0.70;99.90;;;;;;5124683;27;20387;-90
2023/01/25 12:07:20;;;;;;;66.43;28.48;;;0.70;99.90;;;;;;5105182;27;20050;-91
2023/01/25 12:10:16;;;;;;;64.10;27.65;;;0.70;99.90;;;;;;5112356;27;20039;-91
2023/01/25 12:13:02;;;;;;;61.05;27.27;;;0.80;99.90;;;;;;5103271;27;20055;-91
2023/01/25 12:16:06;;;;;;;60.67;28.10;;;0.90;99.90;;;;;;5107257;27;20030;-92
2023/01/25 12:18:37;;;;;;;57.38;25.85;;;0.90;99.90;;;;;;5094047;27;20083;-90
2023/01/25 12:21:22;;;;;;;60.22;26.75;;;1.00;99.90;;;;;;5106555;27;20083;-90
2023/01/25 12:24:11;;;;;;;61.03;25.95;;;1.00;99.90;;;;;;5114397;27;20031;-90
2023/01/25 12:26:53;;;;;;;59.67;25.42;;;1.00;99.90;;;;;;5103463;27;20292;-91
2023/01/25 12:29:54;;;;;;;54.63;24.98;;;1.20;99.90;;;;;;5102727;27;20035;-90
2023/01/25 12:32:27;;;;;;;59.45;27.80;;;1.00;99.90;;;;;;5123602;27;20043;-91
2023/01/25 12:35:20;;;;;;;58.78;25.90;;;1.10;99.90;;;;;;5117429;27;20335;-91
2023/01/25 12:37:48;;;;;;;57.47;25.33;;;1.20;99.90;;;;;;5094621;27;20176;-91
2023/01/25 12:40:20;;;;;;;55.97;25.27;;;1.20;99.90;;;;;;5091593;28;20046;-91
2023/01/25 12:42:55;;;;;;;53.67;24.05;;;1.20;99.90;;;;;;5086769;27;20038;-91
2023/01/25 12:45:27;;;;;;;60.50;25.63;;;1.20;99.90;;;;;;5090994;27;20047;-91
2023/01/25 12:48:16;;;;;;;59.33;25.20;;;1.20;99.90;;;;;;5082747;28;20075;-91
2023/01/25 12:50:56;;;;;;;60.58;24.98;;;1.20;99.90;;;;;;5090749;27;20074;-91
2023/01/25 12:53:31;;;;;;;53.25;23.98;;;1.30;99.90;;;;;;5102580;27;20058;-92
2023/01/25 12:55:57;;;;;;;54.35;24.15;;;1.30;99.90;;;;;;5085409;27;20044;-91
2023/01/25 12:58:23;;;;;;;64.65;26.05;;;1.20;99.90;;;;;;5101775;27;20201;-91
2023/01/25 13:00:54;;;;;;;57.53;25.40;;;1.20;99.90;;;;;;5087044;27;20254;-90
2023/01/25 13:03:27;;;;;;;58.10;25.42;;;1.30;99.90;;;;;;5085959;28;20043;-91
2023/01/25 13:06:00;;;;;;;66.68;25.55;;;1.30;99.90;;;;;;5088494;27;20051;-91
2023/01/25 13:08:34;;;;;;;61.88;25.90;;;1.20;99.90;;;;;;5090887;28;20052;-92
2023/01/25 13:11:06;;;;;;;64.53;26.55;;;1.30;99.90;;;;;;5087673;28;20035;-91
2023/01/25 13:13:33;;;;;;;64.03;25.02;;;1.30;99.90;;;;;;5091854;28;20039;-91
2023/01/25 13:16:35;;;;;;;60.30;25.52;;;1.20;99.90;;;;;;5100588;28;20146;-91
2023/01/25 13:19:01;;;;;;;63.03;24.83;;;1.30;99.90;;;;;;5088436;27;20039;-91
2023/01/25 13:21:35;;;;;;;66.45;26.48;;;1.10;99.90;;;;;;5102550;27;20039;-91
2023/01/25 13:24:10;;;;;;;;;;;1.20;99.90;;;;;;5100395;28;20071;-91